KQA461 HKMO-HKJK
Flight info
| Callsign | KQA461 |
|---|---|
| Flight time | 0h 40m |
| Altitude | 24000 |
| Route | NERAG1A UTIKU Q315 UTEPI UTEPI1A |
| Aircraft | B738/M-SDE2E3FGHIRWXY/LB1 |
Departure
| Time | 2026-04-22 12:49 |
|---|---|
| Airport | Moi International Airport (HKMO) |
Arrival
| Time | 2026-04-22 13:29 |
|---|---|
| Airport | Jomo Kenyatta International Airport (HKJK) |
| Time | Latitude | Longitude | Altitude | Speed | Heading |
|---|---|---|---|---|---|
| 2026-04-22 12:17 | -4.02907 | 39.60093 | 204 ft | 0 kts | 206° |
| 2026-04-22 12:41 | -4.02911 | 39.60091 | 204 ft | 4 kts | 206° |
| 2026-04-22 12:41 | -4.02931 | 39.60081 | 204 ft | 0 kts | 208° |
| 2026-04-22 12:41 | -4.02942 | 39.60064 | 204 ft | 7 kts | 258° |
| 2026-04-22 12:42 | -4.02929 | 39.60024 | 204 ft | 3 kts | 297° |
| 2026-04-22 12:42 | -4.02921 | 39.60009 | 204 ft | 0 kts | 297° |
| 2026-04-22 12:42 | -4.02905 | 39.59979 | 204 ft | 4 kts | 297° |
| 2026-04-22 12:42 | -4.02886 | 39.59963 | 204 ft | 7 kts | 358° |
| 2026-04-22 12:43 | -4.02813 | 39.59998 | 204 ft | 12 kts | 30° |
| 2026-04-22 12:43 | -4.02740 | 39.60039 | 204 ft | 12 kts | 28° |
| 2026-04-22 12:43 | -4.02660 | 39.60084 | 204 ft | 12 kts | 29° |
| 2026-04-22 12:43 | -4.02588 | 39.60124 | 204 ft | 12 kts | 29° |
| 2026-04-22 12:44 | -4.02513 | 39.60166 | 204 ft | 11 kts | 28° |
| 2026-04-22 12:44 | -4.02430 | 39.60212 | 204 ft | 9 kts | 31° |
| 2026-04-22 12:44 | -4.02360 | 39.60252 | 204 ft | 12 kts | 29° |
| 2026-04-22 12:44 | -4.02281 | 39.60296 | 204 ft | 17 kts | 29° |
| 2026-04-22 12:45 | -4.02211 | 39.60335 | 204 ft | 13 kts | 29° |
| 2026-04-22 12:45 | -4.02123 | 39.60384 | 204 ft | 14 kts | 29° |
| 2026-04-22 12:45 | -4.02048 | 39.60427 | 204 ft | 13 kts | 29° |
| 2026-04-22 12:45 | -4.01963 | 39.60474 | 204 ft | 10 kts | 29° |
| 2026-04-22 12:46 | -4.01903 | 39.60508 | 204 ft | 13 kts | 29° |
| 2026-04-22 12:46 | -4.01787 | 39.60573 | 204 ft | 24 kts | 29° |
| 2026-04-22 12:46 | -4.01695 | 39.60625 | 204 ft | 11 kts | 30° |
| 2026-04-22 12:46 | -4.01603 | 39.60678 | 204 ft | 12 kts | 30° |
| 2026-04-22 12:47 | -4.01524 | 39.60720 | 204 ft | 4 kts | 28° |
| 2026-04-22 12:47 | -4.01459 | 39.60747 | 204 ft | 12 kts | 6° |
| 2026-04-22 12:47 | -4.01375 | 39.60707 | 204 ft | 10 kts | 315° |
| 2026-04-22 12:47 | -4.01336 | 39.60653 | 204 ft | 10 kts | 282° |
| 2026-04-22 12:48 | -4.01357 | 39.60617 | 204 ft | 0 kts | 209° |
| 2026-04-22 12:48 | -4.01358 | 39.60616 | 204 ft | 2 kts | 209° |
| 2026-04-22 12:48 | -4.01488 | 39.60543 | 204 ft | 56 kts | 210° |
| 2026-04-22 12:49 | -4.02067 | 39.60220 | 204 ft | 129 kts | 210° |
| 2026-04-22 12:49 | -4.02989 | 39.59703 | 495 ft | 167 kts | 210° |
| 2026-04-22 12:49 | -4.04029 | 39.59113 | 1297 ft | 175 kts | 211° |
| 2026-04-22 12:49 | -4.04818 | 39.58249 | 2380 ft | 171 kts | 239° |
| 2026-04-22 12:50 | -4.04995 | 39.57019 | 2945 ft | 195 kts | 271° |
| 2026-04-22 12:50 | -4.04463 | 39.55655 | 3309 ft | 226 kts | 297° |
| 2026-04-22 12:50 | -4.03448 | 39.54339 | 3606 ft | 253 kts | 307° |
| 2026-04-22 12:50 | -4.02317 | 39.52899 | 4052 ft | 273 kts | 306° |
| 2026-04-22 12:51 | -4.01110 | 39.51361 | 4750 ft | 285 kts | 307° |
| 2026-04-22 12:51 | -3.99873 | 39.49786 | 5609 ft | 290 kts | 307° |
| 2026-04-22 12:51 | -3.98612 | 39.48182 | 6510 ft | 294 kts | 308° |
| 2026-04-22 12:51 | -3.97343 | 39.46568 | 7391 ft | 297 kts | 308° |
| 2026-04-22 12:52 | -3.96059 | 39.44938 | 8258 ft | 300 kts | 308° |
| 2026-04-22 12:52 | -3.94762 | 39.43290 | 9114 ft | 302 kts | 309° |
| 2026-04-22 12:52 | -3.93457 | 39.41632 | 9958 ft | 305 kts | 309° |
| 2026-04-22 12:52 | -3.92133 | 39.39951 | 10726 ft | 311 kts | 309° |
| 2026-04-22 12:53 | -3.90765 | 39.38214 | 11184 ft | 327 kts | 309° |
| 2026-04-22 12:53 | -3.89311 | 39.36368 | 11477 ft | 348 kts | 309° |
| 2026-04-22 12:53 | -3.87769 | 39.34411 | 11756 ft | 366 kts | 309° |
| 2026-04-22 12:53 | -3.86165 | 39.32375 | 12217 ft | 377 kts | 308° |
| 2026-04-22 12:54 | -3.84530 | 39.30300 | 12845 ft | 382 kts | 309° |
| 2026-04-22 12:54 | -3.82875 | 39.28200 | 13514 ft | 385 kts | 309° |
| 2026-04-22 12:54 | -3.81214 | 39.26088 | 14162 ft | 388 kts | 309° |
| 2026-04-22 12:54 | -3.79536 | 39.23957 | 14796 ft | 391 kts | 309° |
| 2026-04-22 12:55 | -3.77842 | 39.21807 | 15414 ft | 394 kts | 309° |
| 2026-04-22 12:55 | -3.76133 | 39.19637 | 15959 ft | 399 kts | 309° |
| 2026-04-22 12:55 | -3.74410 | 39.17451 | 16525 ft | 402 kts | 309° |
| 2026-04-22 12:55 | -3.72666 | 39.15237 | 17074 ft | 406 kts | 309° |
| 2026-04-22 12:56 | -3.70918 | 39.13020 | 17713 ft | 405 kts | 310° |
| 2026-04-22 12:56 | -3.69169 | 39.10799 | 18309 ft | 408 kts | 310° |
| 2026-04-22 12:56 | -3.67402 | 39.08556 | 18736 ft | 414 kts | 310° |
| 2026-04-22 12:56 | -3.65608 | 39.06280 | 19241 ft | 418 kts | 310° |
| 2026-04-22 12:57 | -3.63797 | 39.03982 | 19732 ft | 422 kts | 310° |
| 2026-04-22 12:57 | -3.61962 | 39.01655 | 20194 ft | 427 kts | 309° |
| 2026-04-22 12:57 | -3.60111 | 38.99308 | 20616 ft | 432 kts | 309° |
| 2026-04-22 12:57 | -3.58242 | 38.96938 | 21064 ft | 436 kts | 309° |
| 2026-04-22 12:58 | -3.56353 | 38.94543 | 21491 ft | 439 kts | 309° |
| 2026-04-22 12:58 | -3.54455 | 38.92136 | 21904 ft | 443 kts | 309° |
| 2026-04-22 12:58 | -3.52539 | 38.89708 | 22388 ft | 444 kts | 309° |
| 2026-04-22 12:58 | -3.50629 | 38.87288 | 23045 ft | 442 kts | 310° |
| 2026-04-22 12:59 | -3.48697 | 38.84907 | 23605 ft | 441 kts | 313° |
| 2026-04-22 12:59 | -3.46625 | 38.82639 | 23887 ft | 442 kts | 315° |
| 2026-04-22 12:59 | -3.44478 | 38.80440 | 23955 ft | 440 kts | 317° |
| 2026-04-22 12:59 | -3.42317 | 38.78271 | 23958 ft | 439 kts | 315° |
| 2026-04-22 13:00 | -3.40165 | 38.76092 | 23963 ft | 442 kts | 315° |
| 2026-04-22 13:00 | -3.38012 | 38.73895 | 23963 ft | 442 kts | 315° |
| 2026-04-22 13:00 | -3.35863 | 38.71693 | 23962 ft | 442 kts | 315° |
| 2026-04-22 13:00 | -3.33717 | 38.69488 | 23962 ft | 442 kts | 316° |
| 2026-04-22 13:01 | -3.31575 | 38.67283 | 23966 ft | 440 kts | 316° |
| 2026-04-22 13:01 | -3.29446 | 38.65089 | 23973 ft | 437 kts | 316° |
| 2026-04-22 13:01 | -3.27332 | 38.62909 | 23978 ft | 437 kts | 316° |
| 2026-04-22 13:01 | -3.25242 | 38.60753 | 23982 ft | 437 kts | 316° |
| 2026-04-22 13:02 | -3.23130 | 38.58571 | 23981 ft | 436 kts | 316° |
| 2026-04-22 13:02 | -3.21014 | 38.56385 | 23981 ft | 437 kts | 316° |
| 2026-04-22 13:02 | -3.18896 | 38.54197 | 23983 ft | 436 kts | 316° |
| 2026-04-22 13:02 | -3.16792 | 38.52024 | 23986 ft | 435 kts | 316° |
| 2026-04-22 13:03 | -3.14682 | 38.49845 | 23979 ft | 437 kts | 316° |
| 2026-04-22 13:03 | -3.12567 | 38.47662 | 23973 ft | 437 kts | 316° |
| 2026-04-22 13:03 | -3.10453 | 38.45479 | 23967 ft | 436 kts | 316° |
| 2026-04-22 13:03 | -3.08348 | 38.43307 | 23967 ft | 433 kts | 311° |
| 2026-04-22 13:04 | -3.06258 | 38.41146 | 23948 ft | 433 kts | 315° |
| 2026-04-22 13:04 | -3.04153 | 38.38975 | 23946 ft | 437 kts | 315° |
| 2026-04-22 13:04 | -3.02031 | 38.36785 | 23943 ft | 439 kts | 316° |
| 2026-04-22 13:04 | -2.99909 | 38.34594 | 23940 ft | 438 kts | 316° |
| 2026-04-22 13:05 | -2.97793 | 38.32412 | 23945 ft | 433 kts | 312° |
| 2026-04-22 13:05 | -2.95721 | 38.30273 | 23936 ft | 425 kts | 312° |
| 2026-04-22 13:05 | -2.93660 | 38.28145 | 23931 ft | 427 kts | 311° |
| 2026-04-22 13:05 | -2.91577 | 38.25995 | 23928 ft | 436 kts | 312° |
| 2026-04-22 13:06 | -2.89445 | 38.23794 | 23929 ft | 445 kts | 314° |
| 2026-04-22 13:06 | -2.87287 | 38.21569 | 23932 ft | 445 kts | 314° |
| 2026-04-22 13:06 | -2.85135 | 38.19348 | 23930 ft | 444 kts | 315° |
| 2026-04-22 13:06 | -2.82981 | 38.17126 | 23923 ft | 444 kts | 315° |
| 2026-04-22 13:07 | -2.80831 | 38.14908 | 23920 ft | 444 kts | 316° |
| 2026-04-22 13:07 | -2.78687 | 38.12695 | 23916 ft | 441 kts | 316° |
| 2026-04-22 13:07 | -2.76556 | 38.10498 | 23915 ft | 439 kts | 316° |
| 2026-04-22 13:07 | -2.74431 | 38.08305 | 23914 ft | 439 kts | 315° |
| 2026-04-22 13:08 | -2.72330 | 38.06139 | 23915 ft | 441 kts | 313° |
| 2026-04-22 13:08 | -2.70224 | 38.03967 | 23918 ft | 429 kts | 312° |
| 2026-04-22 13:08 | -2.68171 | 38.01849 | 23915 ft | 420 kts | 312° |
| 2026-04-22 13:08 | -2.66145 | 37.99759 | 23915 ft | 416 kts | 312° |
| 2026-04-22 13:09 | -2.64137 | 37.97689 | 23916 ft | 414 kts | 312° |
| 2026-04-22 13:09 | -2.62121 | 37.95608 | 23920 ft | 421 kts | 316° |
| 2026-04-22 13:09 | -2.60066 | 37.93490 | 23936 ft | 429 kts | 316° |
| 2026-04-22 13:09 | -2.57974 | 37.91333 | 23945 ft | 434 kts | 316° |
| 2026-04-22 13:10 | -2.55869 | 37.89163 | 23950 ft | 434 kts | 316° |
| 2026-04-22 13:10 | -2.53774 | 37.87003 | 23951 ft | 433 kts | 316° |
| 2026-04-22 13:10 | -2.51676 | 37.84840 | 23951 ft | 434 kts | 316° |
| 2026-04-22 13:10 | -2.49563 | 37.82662 | 23947 ft | 435 kts | 316° |
| 2026-04-22 13:11 | -2.48139 | 37.81193 | 23944 ft | 435 kts | 316° |
| 2026-04-22 13:11 | -2.45347 | 37.78315 | 23946 ft | 435 kts | 316° |
| 2026-04-22 13:11 | -2.43246 | 37.76150 | 23955 ft | 432 kts | 316° |
| 2026-04-22 13:11 | -2.41156 | 37.73996 | 23961 ft | 432 kts | 316° |
| 2026-04-22 13:12 | -2.39061 | 37.71836 | 23961 ft | 434 kts | 316° |
| 2026-04-22 13:12 | -2.36957 | 37.69668 | 23961 ft | 434 kts | 316° |
| 2026-04-22 13:12 | -2.34857 | 37.67503 | 23961 ft | 431 kts | 316° |
| 2026-04-22 13:12 | -2.32770 | 37.65352 | 23960 ft | 431 kts | 316° |
| 2026-04-22 13:13 | -2.30698 | 37.63214 | 23957 ft | 423 kts | 316° |
| 2026-04-22 13:13 | -2.28674 | 37.61129 | 23955 ft | 413 kts | 316° |
| 2026-04-22 13:13 | -2.26686 | 37.59079 | 23956 ft | 408 kts | 316° |
| 2026-04-22 13:13 | -2.24704 | 37.57038 | 23958 ft | 408 kts | 316° |
| 2026-04-22 13:14 | -2.22752 | 37.55026 | 23810 ft | 408 kts | 316° |
| 2026-04-22 13:14 | -2.20785 | 37.53000 | 23502 ft | 403 kts | 316° |
| 2026-04-22 13:14 | -2.18835 | 37.50991 | 23048 ft | 402 kts | 316° |
| 2026-04-22 13:14 | -2.16863 | 37.48960 | 22584 ft | 401 kts | 316° |
| 2026-04-22 13:15 | -2.14955 | 37.46994 | 22149 ft | 399 kts | 316° |
| 2026-04-22 13:15 | -2.13026 | 37.45007 | 21703 ft | 397 kts | 316° |
| 2026-04-22 13:15 | -2.11110 | 37.43034 | 21257 ft | 395 kts | 316° |
| 2026-04-22 13:15 | -2.09211 | 37.41057 | 20822 ft | 392 kts | 316° |
| 2026-04-22 13:16 | -2.07348 | 37.39075 | 20390 ft | 389 kts | 316° |
| 2026-04-22 13:16 | -2.05501 | 37.37117 | 19959 ft | 386 kts | 316° |
| 2026-04-22 13:16 | -2.04261 | 37.35803 | 19668 ft | 383 kts | 316° |
| 2026-04-22 13:16 | -2.01747 | 37.33355 | 19087 ft | 378 kts | 320° |
| 2026-04-22 13:17 | -2.00441 | 37.32209 | 18785 ft | 376 kts | 322° |
| 2026-04-22 13:17 | -1.97766 | 37.29964 | 18189 ft | 374 kts | 323° |
| 2026-04-22 13:17 | -1.96448 | 37.28858 | 17898 ft | 373 kts | 322° |
| 2026-04-22 13:17 | -1.94473 | 37.27187 | 17460 ft | 371 kts | 322° |
| 2026-04-22 13:18 | -1.92519 | 37.25525 | 17113 ft | 366 kts | 321° |
| 2026-04-22 13:18 | -1.90595 | 37.23880 | 16752 ft | 363 kts | 321° |
| 2026-04-22 13:18 | -1.88676 | 37.22234 | 16319 ft | 362 kts | 321° |
| 2026-04-22 13:18 | -1.86770 | 37.20597 | 15891 ft | 361 kts | 321° |
| 2026-04-22 13:19 | -1.84875 | 37.18968 | 15468 ft | 359 kts | 321° |
| 2026-04-22 13:19 | -1.82981 | 37.17339 | 15045 ft | 358 kts | 321° |
| 2026-04-22 13:19 | -1.81104 | 37.15723 | 14625 ft | 356 kts | 321° |
| 2026-04-22 13:19 | -1.79228 | 37.14108 | 14209 ft | 354 kts | 322° |
| 2026-04-22 13:20 | -1.77367 | 37.12505 | 13798 ft | 352 kts | 322° |
| 2026-04-22 13:20 | -1.75519 | 37.10913 | 13382 ft | 350 kts | 321° |
| 2026-04-22 13:20 | -1.73680 | 37.09329 | 12968 ft | 349 kts | 321° |
| 2026-04-22 13:20 | -1.71842 | 37.07746 | 12546 ft | 348 kts | 321° |
| 2026-04-22 13:21 | -1.70009 | 37.06168 | 12110 ft | 348 kts | 322° |
| 2026-04-22 13:21 | -1.68174 | 37.04586 | 11686 ft | 347 kts | 322° |
| 2026-04-22 13:21 | -1.66351 | 37.03014 | 11269 ft | 346 kts | 322° |
| 2026-04-22 13:21 | -1.64530 | 37.01445 | 10846 ft | 345 kts | 321° |
| 2026-04-22 13:22 | -1.62712 | 36.99880 | 10442 ft | 344 kts | 321° |
| 2026-04-22 13:22 | -1.60920 | 36.98336 | 10235 ft | 336 kts | 322° |
| 2026-04-22 13:22 | -1.59171 | 36.96829 | 10047 ft | 329 kts | 322° |
| 2026-04-22 13:22 | -1.57463 | 36.95358 | 9932 ft | 319 kts | 322° |
| 2026-04-22 13:23 | -1.55810 | 36.93933 | 9854 ft | 306 kts | 322° |
| 2026-04-22 13:23 | -1.54253 | 36.92592 | 9713 ft | 285 kts | 322° |
| 2026-04-22 13:23 | -1.52801 | 36.91342 | 9576 ft | 267 kts | 322° |
| 2026-04-22 13:23 | -1.51438 | 36.90168 | 9402 ft | 252 kts | 322° |
| 2026-04-22 13:24 | -1.50133 | 36.89044 | 9065 ft | 245 kts | 322° |
| 2026-04-22 13:24 | -1.48863 | 36.87950 | 8655 ft | 242 kts | 322° |
| 2026-04-22 13:24 | -1.47574 | 36.86841 | 8228 ft | 240 kts | 322° |
| 2026-04-22 13:24 | -1.46339 | 36.85777 | 8014 ft | 234 kts | 322° |
| 2026-04-22 13:25 | -1.45105 | 36.84714 | 7941 ft | 234 kts | 322° |
| 2026-04-22 13:25 | -1.43894 | 36.83672 | 7907 ft | 225 kts | 322° |
| 2026-04-22 13:25 | -1.42718 | 36.82676 | 7894 ft | 218 kts | 326° |
| 2026-04-22 13:25 | -1.41356 | 36.82174 | 7728 ft | 207 kts | 0° |
| 2026-04-22 13:26 | -1.39999 | 36.82527 | 7585 ft | 198 kts | 30° |
| 2026-04-22 13:26 | -1.38975 | 36.83360 | 7372 ft | 189 kts | 47° |
| 2026-04-22 13:26 | -1.38114 | 36.84332 | 7133 ft | 179 kts | 52° |
| 2026-04-22 13:26 | -1.37393 | 36.85275 | 6888 ft | 167 kts | 55° |
| 2026-04-22 13:27 | -1.36736 | 36.86173 | 6689 ft | 154 kts | 55° |
| 2026-04-22 13:27 | -1.36119 | 36.87021 | 6456 ft | 148 kts | 55° |
| 2026-04-22 13:27 | -1.35516 | 36.87849 | 6256 ft | 148 kts | 55° |
| 2026-04-22 13:27 | -1.34910 | 36.88682 | 6066 ft | 149 kts | 55° |
| 2026-04-22 13:28 | -1.34302 | 36.89517 | 5869 ft | 148 kts | 55° |
| 2026-04-22 13:28 | -1.33699 | 36.90346 | 5674 ft | 148 kts | 55° |
| 2026-04-22 13:28 | -1.33096 | 36.91175 | 5500 ft | 147 kts | 55° |
| 2026-04-22 13:28 | -1.32502 | 36.91999 | 5348 ft | 141 kts | 54° |
| 2026-04-22 13:29 | -1.32000 | 36.92682 | 5337 ft | 98 kts | 53° |
| 2026-04-22 13:29 | -1.31699 | 36.93093 | 5336 ft | 53 kts | 54° |
| 2026-04-22 13:29 | -1.31583 | 36.93255 | 5336 ft | 10 kts | 57° |
| 2026-04-22 13:29 | -1.31572 | 36.93322 | 5336 ft | 10 kts | 108° |
| 2026-04-22 13:30 | -1.31593 | 36.93351 | 5336 ft | 0 kts | 144° |
| 2026-04-22 13:30 | -1.31599 | 36.93355 | 5336 ft | 3 kts | 144° |
| 2026-04-22 13:31 | -1.31626 | 36.93374 | 5336 ft | 6 kts | 145° |
| 2026-04-22 13:31 | -1.31671 | 36.93406 | 5336 ft | 9 kts | 144° |
| 2026-04-22 13:31 | -1.31730 | 36.93448 | 5336 ft | 12 kts | 144° |
| 2026-04-22 13:31 | -1.31782 | 36.93484 | 5336 ft | 9 kts | 158° |
| 2026-04-22 13:32 | -1.31841 | 36.93459 | 5336 ft | 12 kts | 235° |
| 2026-04-22 13:32 | -1.31897 | 36.93380 | 5336 ft | 16 kts | 234° |
| 2026-04-22 13:32 | -1.31948 | 36.93310 | 5336 ft | 10 kts | 234° |
| 2026-04-22 13:32 | -1.31996 | 36.93243 | 5336 ft | 14 kts | 234° |
| 2026-04-22 13:33 | -1.32057 | 36.93160 | 5336 ft | 14 kts | 233° |
| 2026-04-22 13:33 | -1.32102 | 36.93099 | 5336 ft | 8 kts | 234° |
| 2026-04-22 13:33 | -1.32143 | 36.93043 | 5336 ft | 12 kts | 234° |
| 2026-04-22 13:33 | -1.32194 | 36.92972 | 5336 ft | 13 kts | 234° |
| 2026-04-22 13:34 | -1.32250 | 36.92895 | 5336 ft | 14 kts | 234° |
| 2026-04-22 13:34 | -1.32315 | 36.92806 | 5336 ft | 15 kts | 235° |
| 2026-04-22 13:34 | -1.32376 | 36.92723 | 5336 ft | 16 kts | 233° |
| 2026-04-22 13:34 | -1.32444 | 36.92627 | 5336 ft | 16 kts | 234° |
| 2026-04-22 13:35 | -1.32514 | 36.92530 | 5336 ft | 16 kts | 234° |
| 2026-04-22 13:35 | -1.32567 | 36.92456 | 5336 ft | 10 kts | 234° |
| 2026-04-22 13:35 | -1.32615 | 36.92389 | 5336 ft | 13 kts | 234° |
| 2026-04-22 13:35 | -1.32679 | 36.92350 | 5336 ft | 11 kts | 164° |
| 2026-04-22 13:36 | -1.32716 | 36.92372 | 5336 ft | 2 kts | 145° |
| 2026-04-22 13:36 | -1.32741 | 36.92390 | 5336 ft | 6 kts | 142° |
| 2026-04-22 13:36 | -1.32771 | 36.92429 | 5336 ft | 8 kts | 101° |
| 2026-04-22 13:36 | -1.32768 | 36.92466 | 5336 ft | 5 kts | 87° |
| 2026-04-22 13:37 | -1.32775 | 36.92478 | 5336 ft | 2 kts | 152° |
| 2026-04-22 13:37 | -1.32792 | 36.92483 | 5336 ft | 0 kts | 174° |
| 2026-04-22 13:37 | -1.32808 | 36.92484 | 5336 ft | 4 kts | 175° |
| 2026-04-22 13:37 | -1.32820 | 36.92485 | 5336 ft | 3 kts | 176° |
| 2026-04-22 13:38 | -1.32852 | 36.92487 | 5336 ft | 6 kts | 175° |
| 2026-04-22 13:38 | -1.32859 | 36.92488 | 5336 ft | 1 kts | 175° |